Time;durP1;ratioP1;P1;durP2;ratioP2;P2;SDS_P1;SDS_P2;PMS_P1;PMS_P2;Temp;Humidity;BMP_temperature;BMP_pressure;BME280_temperature;BME280_humidity;BME280_pressure;Samples;Min_cycle;Max_cycle;Signal;HPM_P1;HPM_P2
2023/06/22 00:01:56;;;;;;;5.50;3.78;;;;;;;-144.73;100.00;54292.75;5005019;28;20037;-70
2023/06/22 00:04:21;;;;;;;6.60;4.05;;;;;;;-144.73;100.00;54309.19;4981462;28;20013;-72
2023/06/22 00:06:46;;;;;;;6.80;4.90;;;;;;;-144.73;100.00;54327.66;4993460;28;20050;-69
2023/06/22 00:09:12;;;;;;;11.48;4.88;;;;;;;-144.73;100.00;54278.41;5004815;28;20022;-69
2023/06/22 00:11:37;;;;;;;10.07;4.88;;;;;;;-144.73;100.00;54290.72;5000031;28;20025;-69
2023/06/22 00:14:03;;;;;;;7.10;4.00;;;;;;;-144.73;100.00;54309.19;4986883;28;20025;-70
2023/06/22 00:16:29;;;;;;;5.78;4.78;;;;;;;-144.73;100.00;54323.53;5002886;28;20026;-70
2023/06/22 00:18:54;;;;;;;10.60;4.78;;;;;;;-144.73;100.00;54317.38;5009739;28;20029;-70
2023/06/22 00:21:20;;;;;;;8.35;4.60;;;;;;;-144.73;100.00;54300.97;5001231;28;20018;-68
2023/06/22 00:23:47;;;;;;;10.85;5.25;;;;;;;-144.73;100.00;54305.06;4998228;28;20492;-70
2023/06/22 00:26:13;;;;;;;8.23;4.82;;;;;;;-144.73;100.00;54321.50;5000828;28;20076;-70
2023/06/22 00:28:38;;;;;;;8.43;5.38;;;;;;;-144.73;100.00;54325.59;4982254;28;20046;-70
2023/06/22 00:31:03;;;;;;;7.93;4.75;;;;;;;-144.73;100.00;54292.75;5005038;28;20030;-70
2023/06/22 00:33:29;;;;;;;8.10;4.85;;;;;;;-144.73;100.00;54300.97;4990896;28;20041;-70
2023/06/22 00:35:54;;;;;;;8.73;4.80;;;;;;;-144.73;100.00;54296.88;5006197;28;20022;-70
2023/06/22 00:38:19;;;;;;;5.93;4.30;;;;;;;-144.73;100.00;54300.97;5007461;28;20034;-70
2023/06/22 00:40:45;;;;;;;7.57;4.70;;;;;;;-144.73;100.00;54333.81;4983327;28;20037;-70
2023/06/22 00:43:10;;;;;;;7.50;4.63;;;;;;;-144.73;100.00;54276.34;5000411;28;20100;-70
2023/06/22 00:45:36;;;;;;;7.28;4.97;;;;;;;-144.73;100.00;54309.19;4979819;28;20030;-70
2023/06/22 00:48:02;;;;;;;10.38;5.35;;;;;;;-144.73;100.00;54313.28;4973337;28;20034;-70
2023/06/22 00:50:33;;;;;;;12.07;6.35;;;;;;;-144.73;100.00;54317.38;4992297;28;20081;-71
2023/06/22 00:53:04;;;;;;;7.60;4.78;;;;;;;-144.73;100.00;54325.59;4975190;28;20031;-70
2023/06/22 00:55:29;;;;;;;12.38;7.90;;;;;;;-144.73;100.00;54300.97;4987529;28;20022;-70
2023/06/22 00:57:55;;;;;;;14.73;5.13;;;;;;;-144.73;100.00;54309.19;4999087;28;20398;-70
2023/06/22 01:00:24;;;;;;;6.43;4.57;;;;;;;-144.73;100.00;54296.88;4987952;28;20022;-70
2023/06/22 01:02:51;;;;;;;12.15;4.88;;;;;;;-144.73;100.00;54286.59;5003162;28;20041;-70
2023/06/22 01:05:21;;;;;;;8.40;5.03;;;;;;;-144.73;100.00;54300.97;4998638;28;20019;-70
2023/06/22 01:07:54;;;;;;;7.50;5.05;;;;;;;-144.73;100.00;54317.38;4998191;28;20037;-70
2023/06/22 01:10:25;;;;;;;8.73;5.35;;;;;;;-144.73;100.00;54311.22;4996960;28;20022;-70
2023/06/22 01:13:01;;;;;;;8.52;4.88;;;;;;;-144.73;100.00;54278.41;4982234;28;20034;-70
2023/06/22 01:16:03;;;;;;;11.05;5.07;;;;;;;-144.73;100.00;54325.59;5004507;28;20084;-70
2023/06/22 01:18:30;;;;;;;8.95;5.60;;;;;;;-144.73;100.00;54284.56;4988790;28;20037;-71
2023/06/22 01:20:59;;;;;;;6.75;5.18;;;;;;;-144.73;100.00;54319.44;4990443;28;20084;-71
2023/06/22 01:23:53;;;;;;;8.90;5.30;;;;;;;-144.73;100.00;54300.97;5009606;28;20042;-71
2023/06/22 01:26:28;;;;;;;9.18;5.50;;;;;;;-144.73;100.00;54280.44;5000627;28;20050;-70
2023/06/22 01:28:57;;;;;;;10.20;5.15;;;;;;;-144.73;100.00;54305.06;4993481;28;20044;-69
2023/06/22 01:31:25;;;;;;;8.40;5.10;;;;;;;-144.73;100.00;54313.28;4991894;28;20022;-69
2023/06/22 01:33:54;;;;;;;7.57;5.07;;;;;;;-144.73;100.00;54276.34;4996495;28;20026;-70
2023/06/22 01:36:21;;;;;;;10.88;5.10;;;;;;;-144.73;100.00;54288.66;4990872;28;20046;-70
2023/06/22 01:38:47;;;;;;;9.60;6.22;;;;;;;-144.73;100.00;54317.38;4997590;28;20435;-70
2023/06/22 01:41:13;;;;;;;14.27;6.50;;;;;;;-144.73;100.00;54311.22;4986031;28;20025;-70
2023/06/22 01:43:39;;;;;;;8.77;5.68;;;;;;;-144.73;100.00;54346.13;4992879;28;20034;-70
2023/06/22 01:46:05;;;;;;;9.57;6.28;;;;;;;-144.73;100.00;54317.38;4988452;28;20044;-70
2023/06/22 01:48:31;;;;;;;11.27;5.93;;;;;;;-144.73;100.00;54288.66;4980058;28;20109;-69
2023/06/22 01:50:57;;;;;;;9.88;5.68;;;;;;;-144.73;100.00;54319.44;4995142;28;20022;-70
2023/06/22 01:53:23;;;;;;;10.70;5.22;;;;;;;-144.73;100.00;54337.91;4991537;28;20037;-69
2023/06/22 01:55:48;;;;;;;8.05;5.28;;;;;;;-144.73;100.00;54309.19;4994813;28;20030;-69
2023/06/22 01:58:14;;;;;;;9.07;6.00;;;;;;;-144.73;100.00;54329.72;4996213;28;20057;-69
2023/06/22 02:00:44;;;;;;;10.48;7.15;;;;;;;-144.73;100.00;54321.50;5011417;28;20026;-69
2023/06/22 02:03:18;;;;;;;9.43;6.50;;;;;;;-144.73;100.00;54305.06;5001276;28;20030;-71
2023/06/22 02:05:54;;;;;;;11.32;6.13;;;;;;;-144.73;100.00;54292.75;4985653;28;20154;-70
2023/06/22 02:08:23;;;;;;;11.80;5.95;;;;;;;-144.73;100.00;54317.38;4997138;28;20034;-69
2023/06/22 02:10:51;;;;;;;8.48;5.80;;;;;;;-144.73;100.00;54321.50;4989228;28;20032;-69
2023/06/22 02:13:17;;;;;;;9.43;5.80;;;;;;;-144.73;100.00;54342.03;4982346;28;20038;-70
2023/06/22 02:15:43;;;;;;;8.50;6.32;;;;;;;-144.73;100.00;54305.06;5003183;28;20022;-70
2023/06/22 02:18:08;;;;;;;8.50;5.65;;;;;;;-144.73;100.00;54317.38;5004871;28;20030;-70
2023/06/22 02:20:37;;;;;;;11.30;5.88;;;;;;;-144.73;100.00;54251.72;5010715;28;20033;-70
2023/06/22 02:23:02;;;;;;;15.00;6.15;;;;;;;-144.73;100.00;54313.28;4983949;28;20081;-70
2023/06/22 02:25:28;;;;;;;9.05;6.45;;;;;;;-144.73;100.00;54292.75;4988487;28;20061;-71
2023/06/22 02:27:53;;;;;;;8.90;5.85;;;;;;;-144.73;100.00;54255.81;4996039;28;20046;-70
2023/06/22 02:30:18;;;;;;;11.15;6.55;;;;;;;-144.73;100.00;54309.19;4985421;28;20028;-70
2023/06/22 02:32:43;;;;;;;10.88;8.27;;;;;;;-144.73;100.00;54337.91;5007355;28;20030;-69
2023/06/22 02:35:10;;;;;;;14.73;7.22;;;;;;;-144.73;100.00;54329.72;4980867;28;20018;-70
2023/06/22 02:37:38;;;;;;;8.23;6.05;;;;;;;-144.73;100.00;54325.59;4999805;28;20037;-70
2023/06/22 02:40:07;;;;;;;11.98;6.32;;;;;;;-144.73;100.00;54317.38;5004795;28;20486;-69
2023/06/22 02:42:32;;;;;;;11.15;6.80;;;;;;;-144.73;100.00;54333.81;4995951;28;20038;-69
2023/06/22 02:44:58;;;;;;;8.10;6.03;;;;;;;-144.73;100.00;54346.13;5007937;28;20021;-70
2023/06/22 02:48:07;;;;;;;12.98;7.18;;;;;;;-144.73;100.00;54292.75;5007381;28;20038;-70
2023/06/22 02:50:32;;;;;;;10.48;7.03;;;;;;;-144.73;100.00;54358.44;5002662;28;20022;-70
2023/06/22 02:52:58;;;;;;;15.38;7.82;;;;;;;-144.73;100.00;54296.88;4979624;28;20045;-70
2023/06/22 02:55:23;;;;;;;12.98;6.95;;;;;;;-144.73;100.00;54323.53;5000891;28;20056;-71
2023/06/22 02:57:52;;;;;;;12.35;7.70;;;;;;;-144.73;100.00;54292.75;5003660;28;20041;-71
2023/06/22 03:00:19;;;;;;;8.93;6.85;;;;;;;-144.73;100.00;54296.88;4991251;28;20050;-71
2023/06/22 03:02:45;;;;;;;12.45;7.18;;;;;;;-144.73;100.00;54307.13;4991317;28;20391;-71
2023/06/22 03:05:13;;;;;;;15.32;7.38;;;;;;;-144.73;100.00;54309.19;5008288;28;20030;-71
2023/06/22 03:07:40;;;;;;;11.63;7.57;;;;;;;-144.73;100.00;54309.19;4994699;28;20119;-71
2023/06/22 03:10:07;;;;;;;12.85;6.82;;;;;;;-144.73;100.00;54292.75;4986652;28;20042;-71
2023/06/22 03:12:32;;;;;;;11.90;7.05;;;;;;;-144.73;100.00;54342.03;5009697;28;20030;-68
2023/06/22 03:14:58;;;;;;;9.43;6.88;;;;;;;-144.73;100.00;54350.22;5006366;28;20034;-71
2023/06/22 03:17:23;;;;;;;15.73;7.18;;;;;;;-144.73;100.00;54317.38;4999714;28;20038;-69
2023/06/22 03:19:48;;;;;;;9.95;6.65;;;;;;;-144.73;100.00;54323.53;5000529;28;20022;-70
2023/06/22 03:22:14;;;;;;;11.20;7.00;;;;;;;-144.73;100.00;54305.06;5001349;28;20026;-69
2023/06/22 03:24:40;;;;;;;13.35;7.32;;;;;;;-144.73;100.00;54284.56;4996337;28;20030;-72
2023/06/22 03:27:05;;;;;;;14.07;7.30;;;;;;;-144.73;100.00;54309.19;4997490;28;20034;-72
2023/06/22 03:29:31;;;;;;;13.80;7.22;;;;;;;-144.73;100.00;54329.72;4998773;28;20026;-72
2023/06/22 03:31:56;;;;;;;14.27;8.05;;;;;;;-144.73;100.00;54333.81;4977360;28;20475;-72
2023/06/22 03:34:22;;;;;;;13.32;8.32;;;;;;;-144.73;100.00;54321.50;4998355;28;20040;-72
2023/06/22 03:36:47;;;;;;;10.93;7.57;;;;;;;-144.73;100.00;54300.97;4996889;28;20034;-71
2023/06/22 03:39:12;;;;;;;11.43;7.35;;;;;;;-144.73;100.00;54329.72;4996057;28;20022;-71
2023/06/22 03:41:38;;;;;;;15.80;8.50;;;;;;;-144.73;100.00;54296.88;4986241;28;20501;-72
2023/06/22 03:44:04;;;;;;;16.10;7.65;;;;;;;-144.73;100.00;54358.44;5007146;28;20120;-72
2023/06/22 03:46:29;;;;;;;9.90;7.38;;;;;;;-144.73;100.00;54346.13;4991303;28;20037;-72
2023/06/22 03:48:55;;;;;;;12.00;7.80;;;;;;;-144.73;100.00;54342.03;4988090;28;20035;-72
2023/06/22 03:51:20;;;;;;;11.38;7.72;;;;;;;-144.73;100.00;54331.75;5006554;28;20042;-72
2023/06/22 03:53:45;;;;;;;10.13;6.45;;;;;;;-144.73;100.00;54342.03;5002146;28;20526;-72
2023/06/22 03:56:11;;;;;;;15.77;7.43;;;;;;;-144.73;100.00;54325.59;4985865;28;20072;-71
2023/06/22 03:58:42;;;;;;;14.20;7.20;;;;;;;-144.73;100.00;54276.34;4986256;28;20068;-72
2023/06/22 04:01:11;;;;;;;10.95;6.85;;;;;;;-144.73;100.00;54321.50;4976303;28;20401;-72
2023/06/22 04:03:37;;;;;;;16.17;6.35;;;;;;;-144.73;100.00;54329.72;4994192;28;20046;-72
2023/06/22 04:06:02;;;;;;;12.73;6.93;;;;;;;-144.73;100.00;54317.38;4998702;28;20033;-72
2023/06/22 04:08:27;;;;;;;9.55;6.95;;;;;;;-144.73;100.00;54319.44;4985866;28;20057;-72
2023/06/22 04:10:53;;;;;;;13.93;6.30;;;;;;;-144.73;100.00;54313.28;4979610;28;20026;-72
2023/06/22 04:13:18;;;;;;;12.57;6.70;;;;;;;-144.73;100.00;54337.91;5004031;28;20033;-72
2023/06/22 04:15:44;;;;;;;10.82;6.68;;;;;;;-144.73;100.00;54342.03;5006287;28;20030;-71
2023/06/22 04:18:09;;;;;;;16.40;7.63;;;;;;;-144.73;100.00;54321.50;4999447;28;20038;-71
2023/06/22 04:20:34;;;;;;;12.07;6.93;;;;;;;-144.73;100.00;54313.28;5008883;28;20033;-72
2023/06/22 04:23:00;;;;;;;10.82;6.60;;;;;;;-144.73;100.00;54303.03;4987033;28;20041;-72
2023/06/22 04:25:25;;;;;;;7.60;5.68;;;;;;;-144.73;100.00;54350.22;4995888;28;20030;-72
2023/06/22 04:27:50;;;;;;;12.93;7.40;;;;;;;-144.73;100.00;54290.72;4979777;28;20034;-73
2023/06/22 04:30:16;;;;;;;15.07;6.47;;;;;;;-144.73;100.00;54323.53;5001849;28;20022;-73
2023/06/22 04:32:43;;;;;;;13.32;7.18;;;;;;;-144.73;100.00;54309.19;4995383;28;20034;-73
2023/06/22 04:35:08;;;;;;;15.98;6.15;;;;;;;-144.73;100.00;54296.88;4986591;28;20029;-73
2023/06/22 04:37:34;;;;;;;12.18;7.82;;;;;;;-144.73;100.00;54296.88;4994261;28;20121;-73
2023/06/22 04:39:59;;;;;;;13.38;7.60;;;;;;;-144.73;100.00;54358.44;5002358;28;20057;-73
2023/06/22 04:42:26;;;;;;;13.90;7.20;;;;;;;-144.73;100.00;54337.91;4983426;28;20039;-73
2023/06/22 04:44:51;;;;;;;16.20;6.55;;;;;;;-144.73;100.00;54352.28;4996229;28;20030;-73
2023/06/22 04:47:16;;;;;;;14.10;7.07;;;;;;;-144.73;100.00;54337.91;4987328;28;20041;-73
2023/06/22 04:49:43;;;;;;;10.07;6.70;;;;;;;-144.73;100.00;54300.97;4988626;28;20065;-73
2023/06/22 04:52:11;;;;;;;10.23;7.53;;;;;;;-144.73;100.00;54350.22;5002332;28;20064;-73
2023/06/22 04:54:38;;;;;;;13.00;7.03;;;;;;;-144.73;100.00;54292.75;4982085;28;20121;-73
2023/06/22 04:57:09;;;;;;;10.05;6.85;;;;;;;-144.73;100.00;54329.72;4989973;28;20065;-72
2023/06/22 04:59:36;;;;;;;10.68;7.18;;;;;;;-144.73;100.00;54317.38;5002232;28;20029;-72
2023/06/22 05:02:02;;;;;;;11.27;7.15;;;;;;;-144.73;100.00;54288.66;4999227;28;20034;-72
2023/06/22 05:04:31;;;;;;;13.13;7.15;;;;;;;-144.73;100.00;54342.03;4990777;28;20505;-72
2023/06/22 05:06:57;;;;;;;10.70;6.57;;;;;;;-144.73;100.00;54321.50;4986708;28;20045;-72
2023/06/22 05:09:24;;;;;;;11.20;7.50;;;;;;;-144.73;100.00;54325.59;5003197;28;20605;-72
2023/06/22 05:11:49;;;;;;;18.67;6.80;;;;;;;-144.73;100.00;54284.56;5006154;28;20054;-73
2023/06/22 05:14:15;;;;;;;10.20;6.20;;;;;;;-144.73;100.00;54303.03;5001559;28;20030;-72
2023/06/22 05:16:41;;;;;;;13.95;6.40;;;;;;;-144.73;100.00;54325.59;4981529;28;20030;-72
2023/06/22 05:19:07;;;;;;;11.88;6.20;;;;;;;-144.73;100.00;54296.88;5000291;28;20092;-74
2023/06/22 05:21:32;;;;;;;14.07;5.60;;;;;;;-144.73;100.00;54300.97;5004208;28;20168;-72
2023/06/22 05:24:00;;;;;;;9.00;5.95;;;;;;;-144.73;100.00;54346.13;4993067;28;20029;-73
2023/06/22 05:26:34;;;;;;;8.90;5.70;;;;;;;-144.73;100.00;54325.59;5008110;28;20022;-72
2023/06/22 05:29:02;;;;;;;10.88;5.57;;;;;;;-144.73;100.00;54290.72;4987476;28;20533;-72
2023/06/22 05:31:28;;;;;;;12.40;5.07;;;;;;;-144.73;100.00;54309.19;4995406;28;20022;-72
2023/06/22 05:33:55;;;;;;;13.05;6.07;;;;;;;-144.73;100.00;54333.81;5008693;28;20097;-72
2023/06/22 05:36:21;;;;;;;11.25;5.25;;;;;;;-144.73;100.00;54307.13;4982018;28;20058;-72
2023/06/22 05:38:47;;;;;;;11.20;4.97;;;;;;;-144.73;100.00;54280.44;4978185;28;20042;-72
2023/06/22 05:41:12;;;;;;;10.73;5.25;;;;;;;-144.73;96.08;54313.28;4979130;28;20036;-72
2023/06/22 05:43:38;;;;;;;6.78;4.10;;;;;;;-144.73;96.84;54346.13;5001091;28;20045;-72
2023/06/22 05:46:04;;;;;;;7.40;4.05;;;;;;;-144.73;95.93;54305.06;5009324;28;20109;-72
2023/06/22 05:48:30;;;;;;;10.65;5.15;;;;;;;-144.73;96.27;54307.13;5009805;28;20383;-72
2023/06/22 05:50:55;;;;;;;7.05;4.30;;;;;;;-144.73;96.79;54264.03;5008646;28;20026;-72
2023/06/22 05:53:20;;;;;;;8.68;4.15;;;;;;;-144.73;92.16;54313.28;4988447;28;20596;-72
2023/06/22 05:55:46;;;;;;;9.23;4.63;;;;;;;-144.73;94.25;54298.91;4989949;28;20084;-72
2023/06/22 05:58:13;;;;;;;7.68;5.07;;;;;;;-144.73;89.24;54329.72;4989242;28;20034;-72
2023/06/22 06:00:39;;;;;;;6.88;2.45;;;;;;;-144.73;85.08;54276.34;4986163;28;20030;-71
2023/06/22 06:03:04;;;;;;;11.88;3.20;;;;;;;-144.73;84.62;54317.38;4986052;28;20038;-71
2023/06/22 06:05:31;;;;;;;9.23;3.28;;;;;;;-144.73;85.69;54288.66;4984006;28;20455;-72
2023/06/22 06:07:56;;;;;;;6.53;2.25;;;;;;;-144.73;82.50;54292.75;4979387;28;20030;-72
2023/06/22 06:10:22;;;;;;;8.98;4.00;;;;;;;-144.73;81.93;54284.56;4983082;28;20049;-72
2023/06/22 06:12:47;;;;;;;44.67;4.00;;;;;;;-144.73;82.65;54358.44;5000643;28;20125;-72
2023/06/22 06:15:12;;;;;;;7.00;3.33;;;;;;;-144.73;80.85;54233.25;5004254;28;20038;-72
2023/06/22 06:17:48;;;;;;;7.03;2.90;;;;;;;-144.73;81.21;54288.66;4980408;28;20038;-72
2023/06/22 06:20:13;;;;;;;8.52;3.75;;;;;;;-144.73;80.61;54305.06;5007308;28;20018;-72
2023/06/22 06:22:39;;;;;;;8.70;3.42;;;;;;;-144.73;82.97;54313.28;5006618;28;20033;-72
2023/06/22 06:25:05;;;;;;;7.97;3.25;;;;;;;-144.73;82.06;54292.75;5006728;28;20022;-72
2023/06/22 06:27:30;;;;;;;16.25;3.47;;;;;;;-144.73;79.24;54305.06;5001230;28;20053;-72
2023/06/22 06:29:56;;;;;;;12.45;4.47;;;;;;;-144.73;79.54;54321.50;4988008;28;20065;-72
2023/06/22 06:32:21;;;;;;;16.98;4.47;;;;;;;-144.73;78.50;54276.34;4992076;28;20034;-72
2023/06/22 06:34:47;;;;;;;14.35;4.43;;;;;;;-144.73;78.13;54292.75;5002417;28;20556;-73
2023/06/22 06:37:12;;;;;;;8.15;4.50;;;;;;;-144.73;77.09;54290.72;4997812;28;20030;-72
2023/06/22 06:39:37;;;;;;;20.48;6.45;;;;;;;-144.73;78.65;54292.75;5004641;28;20022;-73
2023/06/22 06:42:04;;;;;;;10.27;4.07;;;;;;;-144.73;75.60;54296.88;5007642;28;20379;-73
2023/06/22 06:44:30;;;;;;;19.90;6.03;;;;;;;-144.73;77.97;54300.97;4993507;28;20482;-73
2023/06/22 06:46:55;;;;;;;16.48;8.07;;;;;;;-144.73;78.76;54264.03;4990761;28;20042;-73
2023/06/22 06:49:20;;;;;;;11.05;6.85;;;;;;;-144.73;77.34;54255.81;5008489;28;20068;-73
2023/06/22 06:51:46;;;;;;;20.25;7.22;;;;;;;-144.73;79.69;54225.03;4991199;28;20037;-74
2023/06/22 06:54:11;;;;;;;13.63;5.20;;;;;;;-144.73;75.77;54249.66;4991969;28;20562;-73
2023/06/22 06:56:37;;;;;;;8.60;4.72;;;;;;;-144.73;76.03;54235.28;4990438;28;20064;-73
2023/06/22 06:59:02;;;;;;;7.70;4.25;;;;;;;-144.73;76.47;54276.34;4991907;28;20026;-73
2023/06/22 07:01:33;;;;;;;7.68;3.40;;;;;;;-144.73;75.92;54294.81;4990309;28;20122;-72
2023/06/22 07:04:00;;;;;;;9.75;3.40;;;;;;;-144.73;76.90;54276.34;4990652;28;20060;-72
2023/06/22 07:06:31;;;;;;;12.38;4.45;;;;;;;-144.73;80.02;54276.34;4989985;28;20057;-73
2023/06/22 07:08:57;;;;;;;7.85;3.65;;;;;;;-144.73;77.83;54298.91;4991169;28;20502;-74
2023/06/22 07:11:22;;;;;;;5.43;3.78;;;;;;;-144.73;77.27;54280.44;5007881;28;20025;-73
2023/06/22 07:13:47;;;;;;;7.95;3.53;;;;;;;-144.73;77.89;54227.09;5006872;28;20117;-71
2023/06/22 07:16:13;;;;;;;8.18;3.75;;;;;;;-144.73;77.76;54284.56;4991128;28;20025;-72
2023/06/22 07:18:43;;;;;;;6.90;3.63;;;;;;;-144.73;78.43;54286.59;4990961;28;20038;-72
2023/06/22 07:21:09;;;;;;;6.47;3.50;;;;;;;-144.73;78.82;54300.97;4990994;28;20037;-72
2023/06/22 07:23:34;;;;;;;5.93;4.20;;;;;;;-144.73;76.63;54276.34;4989529;28;20049;-73
2023/06/22 07:26:02;;;;;;;7.28;4.28;;;;;;;-144.73;76.35;54245.56;5006017;28;20033;-72
2023/06/22 07:28:30;;;;;;;6.05;3.92;;;;;;;-144.73;75.87;54243.50;5006290;28;20033;-76
2023/06/22 07:30:57;;;;;;;16.85;3.88;;;;;;;-144.73;76.02;54247.59;4987224;28;20145;-77
2023/06/22 07:33:22;;;;;;;8.15;4.05;;;;;;;-144.73;75.73;54284.56;4992789;28;20088;-76
2023/06/22 07:35:48;;;;;;;11.52;4.25;;;;;;;-144.73;75.02;54255.81;4980563;28;20025;-76
2023/06/22 07:38:14;;;;;;;6.15;4.18;;;;;;;-144.73;75.11;54276.34;4988682;28;20034;-75
2023/06/22 07:40:41;;;;;;;6.28;3.58;;;;;;;-144.73;73.83;54290.72;4988436;28;20049;-76
2023/06/22 07:43:07;;;;;;;8.07;3.83;;;;;;;-144.73;74.20;54317.38;4984950;28;20037;-76
2023/06/22 07:45:34;;;;;;;7.20;3.70;;;;;;;-144.73;73.78;54255.81;4987943;28;20038;-77
2023/06/22 07:48:00;;;;;;;6.30;4.22;;;;;;;-144.73;72.10;54194.25;4984703;28;20034;-76
2023/06/22 07:50:25;;;;;;;6.25;4.03;;;;;;;-144.73;73.88;54251.72;5007012;28;20034;-78
2023/06/22 07:52:52;;;;;;;11.30;4.18;;;;;;;-144.73;70.78;54218.88;4983030;28;20038;-77
2023/06/22 07:55:18;;;;;;;11.77;4.18;;;;;;;-144.73;71.56;54276.34;4976057;28;20025;-78
2023/06/22 07:57:43;;;;;;;8.45;3.53;;;;;;;-144.73;65.89;54296.88;4978546;28;20041;-76
2023/06/22 08:00:14;;;;;;;13.15;4.55;;;;;;;-144.73;66.65;54245.56;5007016;28;20022;-76
2023/06/22 08:02:41;;;;;;;7.25;4.18;;;;;;;-144.73;69.44;54247.59;4986938;28;20030;-77
2023/06/22 08:05:08;;;;;;;10.82;3.58;;;;;;;-144.73;67.18;54342.03;4989281;28;20049;-78
2023/06/22 08:07:36;;;;;;;5.10;3.13;;;;;;;-144.73;65.95;54239.41;4981499;28;20093;-76
2023/06/22 08:10:02;;;;;;;7.03;3.70;;;;;;;-144.73;64.17;54261.97;4996484;28;20092;-77
2023/06/22 08:12:27;;;;;;;8.15;3.22;;;;;;;-144.73;64.60;54292.75;4989220;28;20041;-77
2023/06/22 08:14:53;;;;;;;10.48;3.45;;;;;;;-144.73;63.21;54231.19;5003648;28;20471;-77
2023/06/22 08:17:18;;;;;;;6.63;3.58;;;;;;;-144.73;61.13;54276.34;4981581;28;20030;-76
2023/06/22 08:19:43;;;;;;;7.32;3.55;;;;;;;-144.73;63.46;54259.91;4987138;28;20053;-77
2023/06/22 08:22:09;;;;;;;11.43;3.53;;;;;;;-144.73;62.44;54237.34;4996380;28;20057;-77
2023/06/22 08:24:34;;;;;;;6.97;3.72;;;;;;;-144.73;62.22;54251.72;4998155;28;20038;-77
2023/06/22 08:26:59;;;;;;;7.40;4.07;;;;;;;-144.73;61.23;54227.09;4982823;28;20531;-77
2023/06/22 08:29:25;;;;;;;8.40;4.22;;;;;;;-144.73;61.75;54251.72;4999461;28;20077;-77
2023/06/22 08:31:50;;;;;;;9.18;3.15;;;;;;;-144.73;61.46;54264.03;4981030;28;20038;-76
2023/06/22 08:34:15;;;;;;;8.50;4.00;;;;;;;-144.73;61.81;54251.72;4982132;28;20022;-76
2023/06/22 08:36:44;;;;;;;6.70;3.50;;;;;;;-144.73;60.36;54216.81;4974518;28;20030;-77
2023/06/22 08:39:10;;;;;;;9.90;4.07;;;;;;;-144.73;63.88;54210.66;4980752;28;20029;-79
2023/06/22 08:41:35;;;;;;;6.03;3.75;;;;;;;-144.73;60.17;54235.28;5005088;28;20176;-76
2023/06/22 08:44:02;;;;;;;7.70;3.85;;;;;;;-144.73;59.60;54194.25;4985849;28;20050;-76
2023/06/22 08:46:31;;;;;;;6.03;3.28;;;;;;;-144.73;59.66;54259.91;4992028;28;20030;-77
2023/06/22 08:48:57;;;;;;;5.72;3.17;;;;;;;-144.73;57.69;54210.66;4990183;28;20073;-77
2023/06/22 08:51:23;;;;;;;8.10;3.70;;;;;;;-144.73;59.06;54235.28;4981979;28;20018;-79
2023/06/22 08:53:49;;;;;;;6.28;2.58;;;;;;;-144.73;57.73;54194.25;4999769;28;20532;-80
2023/06/22 08:56:14;;;;;;;11.63;3.20;;;;;;;-144.73;56.44;54235.28;4989432;28;20097;-79
2023/06/22 08:58:39;;;;;;;8.77;2.72;;;;;;;-144.73;57.07;54222.97;4988659;28;20030;-78
2023/06/22 09:01:05;;;;;;;8.13;3.20;;;;;;;-144.73;53.22;54218.88;4989255;28;20069;-78
2023/06/22 09:03:32;;;;;;;8.05;3.17;;;;;;;-144.73;52.54;54194.25;4983108;28;20046;-79
2023/06/22 09:05:57;;;;;;;4.50;2.60;;;;;;;-144.73;51.92;54194.25;4978427;28;20025;-78
2023/06/22 09:08:23;;;;;;;8.10;3.80;;;;;;;-144.73;51.67;54202.44;5005178;28;20025;-78
2023/06/22 09:10:48;;;;;;;7.63;3.65;;;;;;;-144.73;52.62;54181.94;5003476;28;20102;-79
2023/06/22 09:13:13;;;;;;;4.70;3.08;;;;;;;-144.73;53.14;54210.66;4996070;28;20117;-78
2023/06/22 09:15:39;;;;;;;6.43;3.05;;;;;;;-144.73;54.90;54202.44;4985172;28;20019;-78
2023/06/22 09:18:04;;;;;;;8.13;3.22;;;;;;;-144.73;55.83;54214.78;4989095;28;20079;-79
2023/06/22 09:20:29;;;;;;;8.68;3.40;;;;;;;-144.73;56.49;54204.50;4974648;28;20027;-78
2023/06/22 09:22:55;;;;;;;6.45;3.72;;;;;;;-144.73;54.77;54214.78;4983150;28;20052;-78
2023/06/22 09:25:20;;;;;;;6.05;3.22;;;;;;;-144.73;54.10;54153.19;4999561;28;20030;-78
2023/06/22 09:27:46;;;;;;;8.30;2.83;;;;;;;-144.73;54.85;54218.88;4997167;28;20030;-78
2023/06/22 09:30:12;;;;;;;5.68;3.33;;;;;;;-144.73;52.15;54202.44;4979905;28;20030;-78
2023/06/22 09:32:37;;;;;;;7.00;3.13;;;;;;;-144.73;51.97;54145.00;4979543;28;20088;-80
2023/06/22 09:35:08;;;;;;;7.03;3.35;;;;;;;-144.73;53.80;54206.56;4973921;28;20023;-75
2023/06/22 09:37:34;;;;;;;10.82;3.10;;;;;;;-144.73;52.22;54183.97;4975916;28;20039;-73
2023/06/22 09:39:59;;;;;;;9.57;3.35;;;;;;;-144.73;52.23;54167.56;5003624;28;20027;-73
2023/06/22 09:42:25;;;;;;;8.05;3.97;;;;;;;-144.73;52.29;54181.94;4992376;28;20141;-73
2023/06/22 09:44:50;;;;;;;5.10;3.80;;;;;;;-144.73;52.99;54173.72;5002023;28;20103;-73
2023/06/22 09:47:15;;;;;;;6.35;3.10;;;;;;;-144.73;51.35;54192.19;4983800;28;20026;-73
2023/06/22 09:49:41;;;;;;;5.65;3.42;;;;;;;-144.73;53.00;54218.88;4998752;28;20169;-73
2023/06/22 09:52:06;;;;;;;11.43;3.97;;;;;;;-144.73;53.51;54157.31;5001131;28;20503;-73
2023/06/22 09:54:32;;;;;;;10.35;4.28;;;;;;;-144.73;51.95;54210.66;4978573;28;20026;-73
2023/06/22 09:56:57;;;;;;;6.10;3.58;;;;;;;-144.73;50.73;54214.78;4981050;28;20077;-74
2023/06/22 09:59:22;;;;;;;11.18;3.78;;;;;;;-144.73;51.43;54177.81;5005372;28;20022;-73
2023/06/22 10:01:48;;;;;;;7.07;3.20;;;;;;;-144.73;49.86;54173.72;5006999;28;20030;-73
2023/06/22 10:04:13;;;;;;;5.80;3.25;;;;;;;-144.73;52.11;54186.03;5000171;28;20557;-74
2023/06/22 10:06:40;;;;;;;6.90;3.45;;;;;;;-144.73;49.00;54169.63;5001767;28;20065;-73
2023/06/22 10:09:07;;;;;;;6.50;2.97;;;;;;;-144.73;51.42;54210.66;4984408;28;20040;-73
2023/06/22 10:11:34;;;;;;;5.55;3.63;;;;;;;-144.73;51.53;54167.56;4993851;28;20073;-73
2023/06/22 10:14:00;;;;;;;10.55;3.47;;;;;;;-144.73;49.96;54181.94;4979005;28;20030;-73
2023/06/22 10:16:31;;;;;;;11.02;2.95;;;;;;;-144.73;47.88;54167.56;4993641;28;20501;-73
2023/06/22 10:18:56;;;;;;;16.63;4.65;;;;;;;-144.73;48.65;54173.72;4991690;28;20037;-74
2023/06/22 10:21:21;;;;;;;7.72;3.47;;;;;;;-144.73;46.73;54171.66;5001284;28;20026;-73
2023/06/22 10:23:47;;;;;;;7.57;3.47;;;;;;;-144.73;48.74;54161.41;5002226;28;20041;-73
2023/06/22 10:26:12;;;;;;;4.45;3.25;;;;;;;-144.73;48.63;54157.31;5005245;28;20025;-73
2023/06/22 10:28:37;;;;;;;7.05;3.17;;;;;;;-144.73;49.99;54181.94;4987818;28;20068;-73
2023/06/22 10:31:02;;;;;;;15.20;3.75;;;;;;;-144.73;49.18;54145.00;4995005;28;20061;-73
2023/06/22 10:33:28;;;;;;;7.00;3.50;;;;;;;-144.73;48.02;54159.34;4999518;28;20042;-73
2023/06/22 10:35:53;;;;;;;11.30;3.60;;;;;;;-144.73;45.95;54202.44;4981421;28;20018;-74
2023/06/22 10:38:18;;;;;;;11.50;3.35;;;;;;;-144.73;46.94;54145.00;5009451;28;20022;-73
2023/06/22 10:40:44;;;;;;;4.15;2.78;;;;;;;-144.73;48.85;54198.34;5008518;28;20117;-74
2023/06/22 10:43:09;;;;;;;4.38;3.22;;;;;;;-144.73;49.08;54186.03;4977594;28;20050;-73
2023/06/22 10:45:35;;;;;;;6.32;3.72;;;;;;;-144.73;48.68;54145.00;4994523;28;20021;-73
2023/06/22 10:48:00;;;;;;;5.50;3.33;;;;;;;-144.73;50.64;54186.03;4988249;28;20030;-73
2023/06/22 10:50:25;;;;;;;10.90;3.58;;;;;;;-144.73;52.18;54198.34;5004466;28;20032;-73
2023/06/22 10:52:51;;;;;;;12.68;3.60;;;;;;;-144.73;53.29;54222.97;4988584;28;20042;-74
2023/06/22 10:55:16;;;;;;;10.55;3.88;;;;;;;-144.73;52.61;54165.50;5006859;28;20022;-73
2023/06/22 10:57:44;;;;;;;11.55;4.43;;;;;;;-144.73;51.54;54147.03;5009408;28;20503;-73
2023/06/22 11:00:11;;;;;;;9.63;3.60;;;;;;;-144.73;50.07;54153.19;4981334;28;20048;-72
2023/06/22 11:02:36;;;;;;;5.90;3.80;;;;;;;-144.73;48.17;54177.81;4994705;28;20499;-72
2023/06/22 11:05:03;;;;;;;4.90;3.33;;;;;;;-144.73;46.93;54145.00;4977323;28;20041;-72
2023/06/22 11:07:29;;;;;;;7.10;4.15;;;;;;;-144.73;47.42;54145.00;4993319;28;20090;-73